sensor_id;sensor_type;location;lat;lon;timestamp;temperature;humidity
5192;DHT22;2615;44.524;11.284;2022-09-02T00:01:38;21.90;71.10
5192;DHT22;2615;44.524;11.284;2022-09-02T00:04:13;21.90;71.10
5192;DHT22;2615;44.524;11.284;2022-09-02T00:06:43;22.00;71.20
5192;DHT22;2615;44.524;11.284;2022-09-02T00:09:14;21.90;71.00
5192;DHT22;2615;44.524;11.284;2022-09-02T00:11:44;21.90;71.00
5192;DHT22;2615;44.524;11.284;2022-09-02T00:14:17;21.90;71.10
5192;DHT22;2615;44.524;11.284;2022-09-02T00:16:47;21.80;70.90
5192;DHT22;2615;44.524;11.284;2022-09-02T00:19:19;21.80;70.90
5192;DHT22;2615;44.524;11.284;2022-09-02T00:21:48;21.80;71.00
5192;DHT22;2615;44.524;11.284;2022-09-02T00:24:16;21.70;70.90
5192;DHT22;2615;44.524;11.284;2022-09-02T00:26:45;21.70;71.00
5192;DHT22;2615;44.524;11.284;2022-09-02T00:29:14;21.70;71.00
5192;DHT22;2615;44.524;11.284;2022-09-02T00:31:43;21.70;71.10
5192;DHT22;2615;44.524;11.284;2022-09-02T00:34:13;21.70;71.20
5192;DHT22;2615;44.524;11.284;2022-09-02T00:36:41;21.70;71.20
5192;DHT22;2615;44.524;11.284;2022-09-02T00:39:09;21.70;71.10
5192;DHT22;2615;44.524;11.284;2022-09-02T00:41:39;21.70;71.20
5192;DHT22;2615;44.524;11.284;2022-09-02T00:44:10;21.70;71.10
5192;DHT22;2615;44.524;11.284;2022-09-02T00:46:39;21.70;71.00
5192;DHT22;2615;44.524;11.284;2022-09-02T00:49:13;21.70;71.10
5192;DHT22;2615;44.524;11.284;2022-09-02T00:51:46;21.70;71.10
5192;DHT22;2615;44.524;11.284;2022-09-02T00:54:16;21.60;71.00
5192;DHT22;2615;44.524;11.284;2022-09-02T00:56:47;21.60;71.00
5192;DHT22;2615;44.524;11.284;2022-09-02T00:59:25;21.60;71.20
5192;DHT22;2615;44.524;11.284;2022-09-02T01:01:54;21.60;71.90
5192;DHT22;2615;44.524;11.284;2022-09-02T01:04:24;21.50;71.10
5192;DHT22;2615;44.524;11.284;2022-09-02T01:06:53;21.50;71.10
5192;DHT22;2615;44.524;11.284;2022-09-02T01:09:22;21.50;71.10
5192;DHT22;2615;44.524;11.284;2022-09-02T01:11:50;21.40;71.00
5192;DHT22;2615;44.524;11.284;2022-09-02T01:14:19;21.40;71.20
5192;DHT22;2615;44.524;11.284;2022-09-02T01:16:50;21.30;71.30
5192;DHT22;2615;44.524;11.284;2022-09-02T01:19:21;21.30;71.60
5192;DHT22;2615;44.524;11.284;2022-09-02T01:21:52;21.30;71.70
5192;DHT22;2615;44.524;11.284;2022-09-02T01:24:24;21.30;71.60
5192;DHT22;2615;44.524;11.284;2022-09-02T01:26:55;21.30;71.60
5192;DHT22;2615;44.524;11.284;2022-09-02T01:29:24;21.30;71.80
5192;DHT22;2615;44.524;11.284;2022-09-02T01:31:52;21.20;71.80
5192;DHT22;2615;44.524;11.284;2022-09-02T01:34:22;21.20;71.80
5192;DHT22;2615;44.524;11.284;2022-09-02T01:36:52;21.20;72.00
5192;DHT22;2615;44.524;11.284;2022-09-02T01:39:20;21.20;72.10
5192;DHT22;2615;44.524;11.284;2022-09-02T01:41:48;21.20;72.40
5192;DHT22;2615;44.524;11.284;2022-09-02T01:44:16;21.20;72.30
5192;DHT22;2615;44.524;11.284;2022-09-02T01:46:45;21.20;72.20
5192;DHT22;2615;44.524;11.284;2022-09-02T01:49:13;21.30;72.30
5192;DHT22;2615;44.524;11.284;2022-09-02T01:51:41;21.30;72.20
5192;DHT22;2615;44.524;11.284;2022-09-02T01:54:11;21.30;72.30
5192;DHT22;2615;44.524;11.284;2022-09-02T01:56:39;21.30;72.30
5192;DHT22;2615;44.524;11.284;2022-09-02T01:59:07;21.30;72.30
5192;DHT22;2615;44.524;11.284;2022-09-02T02:01:37;21.30;72.30
5192;DHT22;2615;44.524;11.284;2022-09-02T02:04:05;21.30;72.20
5192;DHT22;2615;44.524;11.284;2022-09-02T02:06:39;21.40;72.20
5192;DHT22;2615;44.524;11.284;2022-09-02T02:09:09;21.30;72.20
5192;DHT22;2615;44.524;11.284;2022-09-02T02:11:39;21.30;72.10
5192;DHT22;2615;44.524;11.284;2022-09-02T02:14:07;21.30;72.10
5192;DHT22;2615;44.524;11.284;2022-09-02T02:16:36;21.20;72.00
5192;DHT22;2615;44.524;11.284;2022-09-02T02:19:04;21.20;72.30
5192;DHT22;2615;44.524;11.284;2022-09-02T02:24:02;21.10;71.70
5192;DHT22;2615;44.524;11.284;2022-09-02T02:26:31;21.10;72.50
5192;DHT22;2615;44.524;11.284;2022-09-02T02:29:01;21.00;72.50
5192;DHT22;2615;44.524;11.284;2022-09-02T02:31:29;21.00;72.60
5192;DHT22;2615;44.524;11.284;2022-09-02T02:33:57;21.00;72.80
5192;DHT22;2615;44.524;11.284;2022-09-02T02:36:25;21.10;72.90
5192;DHT22;2615;44.524;11.284;2022-09-02T02:38:54;21.10;72.60
5192;DHT22;2615;44.524;11.284;2022-09-02T02:41:22;21.10;72.50
5192;DHT22;2615;44.524;11.284;2022-09-02T02:43:51;21.10;72.40
5192;DHT22;2615;44.524;11.284;2022-09-02T02:46:20;21.10;72.40
5192;DHT22;2615;44.524;11.284;2022-09-02T02:48:49;21.10;72.50
5192;DHT22;2615;44.524;11.284;2022-09-02T02:51:17;21.10;72.40
5192;DHT22;2615;44.524;11.284;2022-09-02T02:53:45;21.10;72.40
5192;DHT22;2615;44.524;11.284;2022-09-02T02:56:14;21.10;72.30
5192;DHT22;2615;44.524;11.284;2022-09-02T02:58:42;21.10;72.50
5192;DHT22;2615;44.524;11.284;2022-09-02T03:01:10;21.10;72.60
5192;DHT22;2615;44.524;11.284;2022-09-02T03:03:40;21.10;72.60
5192;DHT22;2615;44.524;11.284;2022-09-02T03:06:09;21.10;72.40
5192;DHT22;2615;44.524;11.284;2022-09-02T03:08:37;21.20;72.50
5192;DHT22;2615;44.524;11.284;2022-09-02T03:11:05;21.20;72.70
5192;DHT22;2615;44.524;11.284;2022-09-02T03:13:34;21.30;72.70
5192;DHT22;2615;44.524;11.284;2022-09-02T03:16:03;21.30;72.50
5192;DHT22;2615;44.524;11.284;2022-09-02T03:18:32;21.30;72.40
5192;DHT22;2615;44.524;11.284;2022-09-02T03:21:05;21.30;72.20
5192;DHT22;2615;44.524;11.284;2022-09-02T03:23:34;21.30;72.30
5192;DHT22;2615;44.524;11.284;2022-09-02T03:26:08;21.20;72.10
5192;DHT22;2615;44.524;11.284;2022-09-02T03:28:37;21.20;72.10
5192;DHT22;2615;44.524;11.284;2022-09-02T03:31:06;21.20;71.90
5192;DHT22;2615;44.524;11.284;2022-09-02T03:33:34;21.20;71.80
5192;DHT22;2615;44.524;11.284;2022-09-02T03:36:04;21.20;71.80
5192;DHT22;2615;44.524;11.284;2022-09-02T03:38:34;21.10;71.80
5192;DHT22;2615;44.524;11.284;2022-09-02T03:41:02;21.10;71.90
5192;DHT22;2615;44.524;11.284;2022-09-02T03:43:30;21.10;72.00
5192;DHT22;2615;44.524;11.284;2022-09-02T03:45:58;21.00;72.00
5192;DHT22;2615;44.524;11.284;2022-09-02T03:48:26;21.00;72.10
5192;DHT22;2615;44.524;11.284;2022-09-02T03:50:56;21.00;72.10
5192;DHT22;2615;44.524;11.284;2022-09-02T03:53:25;21.00;72.10
5192;DHT22;2615;44.524;11.284;2022-09-02T03:55:53;21.00;72.00
5192;DHT22;2615;44.524;11.284;2022-09-02T03:58:21;21.00;72.00
5192;DHT22;2615;44.524;11.284;2022-09-02T04:00:50;21.00;72.10
5192;DHT22;2615;44.524;11.284;2022-09-02T04:03:19;20.90;72.10
5192;DHT22;2615;44.524;11.284;2022-09-02T04:05:49;20.90;72.30
5192;DHT22;2615;44.524;11.284;2022-09-02T04:08:18;20.90;72.30
5192;DHT22;2615;44.524;11.284;2022-09-02T04:10:48;21.00;72.40
5192;DHT22;2615;44.524;11.284;2022-09-02T04:13:17;20.90;72.30
5192;DHT22;2615;44.524;11.284;2022-09-02T04:15:45;21.00;72.50
5192;DHT22;2615;44.524;11.284;2022-09-02T04:18:16;21.00;72.40
5192;DHT22;2615;44.524;11.284;2022-09-02T04:20:44;21.10;72.40
5192;DHT22;2615;44.524;11.284;2022-09-02T04:23:13;21.10;73.00
5192;DHT22;2615;44.524;11.284;2022-09-02T04:25:43;21.10;72.10
5192;DHT22;2615;44.524;11.284;2022-09-02T04:28:12;21.10;72.00
5192;DHT22;2615;44.524;11.284;2022-09-02T04:30:41;21.10;71.90
5192;DHT22;2615;44.524;11.284;2022-09-02T04:33:10;21.10;71.90
5192;DHT22;2615;44.524;11.284;2022-09-02T04:35:40;21.10;71.90
5192;DHT22;2615;44.524;11.284;2022-09-02T04:38:09;21.10;71.80
5192;DHT22;2615;44.524;11.284;2022-09-02T04:40:39;21.10;71.80
5192;DHT22;2615;44.524;11.284;2022-09-02T04:43:08;21.00;71.80
5192;DHT22;2615;44.524;11.284;2022-09-02T04:45:39;21.00;71.80
5192;DHT22;2615;44.524;11.284;2022-09-02T04:48:08;21.00;71.90
5192;DHT22;2615;44.524;11.284;2022-09-02T04:50:38;21.10;72.00
5192;DHT22;2615;44.524;11.284;2022-09-02T04:53:07;21.10;71.80
5192;DHT22;2615;44.524;11.284;2022-09-02T04:58:08;21.10;70.90
5192;DHT22;2615;44.524;11.284;2022-09-02T05:00:36;21.10;71.60
5192;DHT22;2615;44.524;11.284;2022-09-02T05:03:06;21.10;72.00
5192;DHT22;2615;44.524;11.284;2022-09-02T05:05:34;21.30;72.30
5192;DHT22;2615;44.524;11.284;2022-09-02T05:08:05;21.50;72.10
5192;DHT22;2615;44.524;11.284;2022-09-02T05:10:33;21.70;71.80
5192;DHT22;2615;44.524;11.284;2022-09-02T05:13:01;21.90;71.50
5192;DHT22;2615;44.524;11.284;2022-09-02T05:15:30;22.10;71.10
5192;DHT22;2615;44.524;11.284;2022-09-02T05:17:59;22.20;70.70
5192;DHT22;2615;44.524;11.284;2022-09-02T05:20:30;22.40;70.50
5192;DHT22;2615;44.524;11.284;2022-09-02T05:22:59;22.50;70.30
5192;DHT22;2615;44.524;11.284;2022-09-02T05:25:27;22.50;70.00
5192;DHT22;2615;44.524;11.284;2022-09-02T05:27:56;22.60;69.90
5192;DHT22;2615;44.524;11.284;2022-09-02T05:30:24;22.60;69.80
5192;DHT22;2615;44.524;11.284;2022-09-02T05:32:52;22.70;69.80
5192;DHT22;2615;44.524;11.284;2022-09-02T05:35:20;22.70;69.50
5192;DHT22;2615;44.524;11.284;2022-09-02T05:37:50;22.80;69.70
5192;DHT22;2615;44.524;11.284;2022-09-02T05:40:22;22.80;69.60
5192;DHT22;2615;44.524;11.284;2022-09-02T05:42:54;22.90;69.70
5192;DHT22;2615;44.524;11.284;2022-09-02T05:45:22;22.90;69.20
5192;DHT22;2615;44.524;11.284;2022-09-02T05:47:50;22.90;69.10
5192;DHT22;2615;44.524;11.284;2022-09-02T05:50:18;22.80;68.90
5192;DHT22;2615;44.524;11.284;2022-09-02T05:52:50;22.80;69.00
5192;DHT22;2615;44.524;11.284;2022-09-02T05:55:18;22.90;69.10
5192;DHT22;2615;44.524;11.284;2022-09-02T05:57:46;22.80;69.00
5192;DHT22;2615;44.524;11.284;2022-09-02T06:00:15;22.90;68.80
5192;DHT22;2615;44.524;11.284;2022-09-02T06:02:44;23.00;68.60
5192;DHT22;2615;44.524;11.284;2022-09-02T06:05:12;23.00;68.50
5192;DHT22;2615;44.524;11.284;2022-09-02T06:07:40;23.00;68.30
5192;DHT22;2615;44.524;11.284;2022-09-02T06:10:09;23.00;68.10
5192;DHT22;2615;44.524;11.284;2022-09-02T06:12:38;23.00;67.80
5192;DHT22;2615;44.524;11.284;2022-09-02T06:15:09;23.00;67.90
5192;DHT22;2615;44.524;11.284;2022-09-02T06:17:38;23.00;67.80
5192;DHT22;2615;44.524;11.284;2022-09-02T06:20:06;23.00;67.80
5192;DHT22;2615;44.524;11.284;2022-09-02T06:22:37;23.00;67.70
5192;DHT22;2615;44.524;11.284;2022-09-02T06:25:06;22.90;67.60
5192;DHT22;2615;44.524;11.284;2022-09-02T06:27:36;22.90;67.60
5192;DHT22;2615;44.524;11.284;2022-09-02T06:30:05;22.80;67.50
5192;DHT22;2615;44.524;11.284;2022-09-02T06:32:33;22.70;67.60
5192;DHT22;2615;44.524;11.284;2022-09-02T06:35:02;22.60;67.80
5192;DHT22;2615;44.524;11.284;2022-09-02T06:37:30;22.70;67.90
5192;DHT22;2615;44.524;11.284;2022-09-02T06:39:58;22.70;67.80
5192;DHT22;2615;44.524;11.284;2022-09-02T06:42:26;22.70;67.60
5192;DHT22;2615;44.524;11.284;2022-09-02T06:44:56;22.80;67.60
5192;DHT22;2615;44.524;11.284;2022-09-02T06:47:24;22.80;67.50
5192;DHT22;2615;44.524;11.284;2022-09-02T06:49:52;22.80;67.50
5192;DHT22;2615;44.524;11.284;2022-09-02T06:52:20;22.90;67.50
5192;DHT22;2615;44.524;11.284;2022-09-02T06:54:49;22.90;67.40
5192;DHT22;2615;44.524;11.284;2022-09-02T06:57:17;22.90;67.20
5192;DHT22;2615;44.524;11.284;2022-09-02T06:59:45;22.80;67.10
5192;DHT22;2615;44.524;11.284;2022-09-02T07:02:15;22.80;67.20
5192;DHT22;2615;44.524;11.284;2022-09-02T07:04:44;22.80;67.30
5192;DHT22;2615;44.524;11.284;2022-09-02T07:07:29;22.80;67.40
5192;DHT22;2615;44.524;11.284;2022-09-02T07:09:57;22.90;67.50
5192;DHT22;2615;44.524;11.284;2022-09-02T07:12:25;23.00;67.50
5192;DHT22;2615;44.524;11.284;2022-09-02T07:14:54;23.10;67.30
5192;DHT22;2615;44.524;11.284;2022-09-02T07:17:24;23.20;67.10
5192;DHT22;2615;44.524;11.284;2022-09-02T07:19:53;23.30;66.90
5192;DHT22;2615;44.524;11.284;2022-09-02T07:22:25;23.30;66.80
5192;DHT22;2615;44.524;11.284;2022-09-02T07:24:53;23.30;66.80
5192;DHT22;2615;44.524;11.284;2022-09-02T07:27:21;23.30;66.70
5192;DHT22;2615;44.524;11.284;2022-09-02T07:29:49;23.30;66.60
5192;DHT22;2615;44.524;11.284;2022-09-02T07:32:18;23.30;66.50
5192;DHT22;2615;44.524;11.284;2022-09-02T07:34:48;23.40;66.70
5192;DHT22;2615;44.524;11.284;2022-09-02T07:37:17;23.40;66.40
5192;DHT22;2615;44.524;11.284;2022-09-02T07:39:45;23.50;66.40
5192;DHT22;2615;44.524;11.284;2022-09-02T07:42:13;23.50;66.40
5192;DHT22;2615;44.524;11.284;2022-09-02T07:44:42;23.70;66.40
5192;DHT22;2615;44.524;11.284;2022-09-02T07:47:10;23.70;65.90
5192;DHT22;2615;44.524;11.284;2022-09-02T07:49:38;23.80;65.80
5192;DHT22;2615;44.524;11.284;2022-09-02T07:52:28;23.90;65.70
5192;DHT22;2615;44.524;11.284;2022-09-02T07:54:56;23.90;65.50
5192;DHT22;2615;44.524;11.284;2022-09-02T07:57:24;24.00;65.40
5192;DHT22;2615;44.524;11.284;2022-09-02T07:59:52;24.10;65.30
5192;DHT22;2615;44.524;11.284;2022-09-02T08:02:20;24.20;65.10
5192;DHT22;2615;44.524;11.284;2022-09-02T08:04:48;24.30;65.00
5192;DHT22;2615;44.524;11.284;2022-09-02T08:07:16;24.40;64.80
5192;DHT22;2615;44.524;11.284;2022-09-02T08:09:51;24.50;64.60
5192;DHT22;2615;44.524;11.284;2022-09-02T08:12:19;24.60;64.30
5192;DHT22;2615;44.524;11.284;2022-09-02T08:14:48;24.70;64.10
5192;DHT22;2615;44.524;11.284;2022-09-02T08:17:16;24.80;63.80
5192;DHT22;2615;44.524;11.284;2022-09-02T08:19:44;24.90;63.50
5192;DHT22;2615;44.524;11.284;2022-09-02T08:22:13;24.90;63.30
5192;DHT22;2615;44.524;11.284;2022-09-02T08:24:41;25.00;63.10
5192;DHT22;2615;44.524;11.284;2022-09-02T08:27:11;25.10;62.90
5192;DHT22;2615;44.524;11.284;2022-09-02T08:29:39;25.20;62.60
5192;DHT22;2615;44.524;11.284;2022-09-02T08:32:08;25.20;62.30
5192;DHT22;2615;44.524;11.284;2022-09-02T08:34:36;25.30;62.10
5192;DHT22;2615;44.524;11.284;2022-09-02T08:37:04;25.30;61.90
5192;DHT22;2615;44.524;11.284;2022-09-02T08:39:33;25.30;61.60
5192;DHT22;2615;44.524;11.284;2022-09-02T08:42:08;25.40;61.50
5192;DHT22;2615;44.524;11.284;2022-09-02T08:44:42;25.40;61.30
5192;DHT22;2615;44.524;11.284;2022-09-02T08:47:16;25.40;61.10
5192;DHT22;2615;44.524;11.284;2022-09-02T08:49:49;25.50;60.50
5192;DHT22;2615;44.524;11.284;2022-09-02T08:52:24;25.50;60.10
5192;DHT22;2615;44.524;11.284;2022-09-02T08:54:54;25.40;59.80
5192;DHT22;2615;44.524;11.284;2022-09-02T08:57:23;25.40;59.80
5192;DHT22;2615;44.524;11.284;2022-09-02T08:59:56;25.40;59.70
5192;DHT22;2615;44.524;11.284;2022-09-02T09:02:34;25.40;59.50
5192;DHT22;2615;44.524;11.284;2022-09-02T09:05:25;25.50;59.50
5192;DHT22;2615;44.524;11.284;2022-09-02T09:08:07;25.50;59.60
5192;DHT22;2615;44.524;11.284;2022-09-02T09:10:47;25.50;59.40
5192;DHT22;2615;44.524;11.284;2022-09-02T09:13:53;25.60;59.40
5192;DHT22;2615;44.524;11.284;2022-09-02T09:16:37;25.70;59.20
5192;DHT22;2615;44.524;11.284;2022-09-02T09:19:10;25.80;59.10
5192;DHT22;2615;44.524;11.284;2022-09-02T09:21:39;25.80;58.80
5192;DHT22;2615;44.524;11.284;2022-09-02T09:24:17;25.90;58.60
5192;DHT22;2615;44.524;11.284;2022-09-02T09:26:45;26.00;58.20
5192;DHT22;2615;44.524;11.284;2022-09-02T09:29:14;26.10;58.10
5192;DHT22;2615;44.524;11.284;2022-09-02T09:31:48;26.20;58.10
5192;DHT22;2615;44.524;11.284;2022-09-02T09:34:17;26.30;57.70
5192;DHT22;2615;44.524;11.284;2022-09-02T09:36:51;26.40;57.60
5192;DHT22;2615;44.524;11.284;2022-09-02T09:39:23;26.60;57.10
5192;DHT22;2615;44.524;11.284;2022-09-02T09:41:53;26.80;56.90
5192;DHT22;2615;44.524;11.284;2022-09-02T09:44:42;27.00;56.60
5192;DHT22;2615;44.524;11.284;2022-09-02T09:47:18;27.20;56.10
5192;DHT22;2615;44.524;11.284;2022-09-02T09:49:48;27.40;55.60
5192;DHT22;2615;44.524;11.284;2022-09-02T09:52:25;27.60;55.10
5192;DHT22;2615;44.524;11.284;2022-09-02T09:55:15;27.70;54.30
5192;DHT22;2615;44.524;11.284;2022-09-02T09:57:51;27.80;54.10
5192;DHT22;2615;44.524;11.284;2022-09-02T10:00:24;28.00;54.20
5192;DHT22;2615;44.524;11.284;2022-09-02T10:02:58;28.20;53.70
5192;DHT22;2615;44.524;11.284;2022-09-02T10:05:32;28.50;53.30
5192;DHT22;2615;44.524;11.284;2022-09-02T10:08:02;28.80;52.80
5192;DHT22;2615;44.524;11.284;2022-09-02T10:10:54;29.00;52.60
5192;DHT22;2615;44.524;11.284;2022-09-02T10:13:24;29.20;52.20
5192;DHT22;2615;44.524;11.284;2022-09-02T10:16:04;29.40;52.10
5192;DHT22;2615;44.524;11.284;2022-09-02T10:18:39;29.50;51.40
5192;DHT22;2615;44.524;11.284;2022-09-02T10:21:26;29.60;51.10
5192;DHT22;2615;44.524;11.284;2022-09-02T10:24:01;29.80;50.40
5192;DHT22;2615;44.524;11.284;2022-09-02T10:26:36;30.00;49.80
5192;DHT22;2615;44.524;11.284;2022-09-02T10:32:21;30.40;48.50
5192;DHT22;2615;44.524;11.284;2022-09-02T10:34:58;30.60;48.30
5192;DHT22;2615;44.524;11.284;2022-09-02T10:37:34;30.70;47.70
5192;DHT22;2615;44.524;11.284;2022-09-02T10:40:10;30.90;47.40
5192;DHT22;2615;44.524;11.284;2022-09-02T10:42:55;31.10;47.30
5192;DHT22;2615;44.524;11.284;2022-09-02T10:45:33;31.40;46.70
5192;DHT22;2615;44.524;11.284;2022-09-02T10:48:22;31.50;46.10
5192;DHT22;2615;44.524;11.284;2022-09-02T10:50:57;31.70;45.50
5192;DHT22;2615;44.524;11.284;2022-09-02T10:53:42;31.90;45.40
5192;DHT22;2615;44.524;11.284;2022-09-02T10:56:17;32.20;44.60
5192;DHT22;2615;44.524;11.284;2022-09-02T10:58:53;32.30;44.40
5192;DHT22;2615;44.524;11.284;2022-09-02T11:01:25;32.40;43.90
5192;DHT22;2615;44.524;11.284;2022-09-02T11:04:04;32.50;43.50
5192;DHT22;2615;44.524;11.284;2022-09-02T11:06:39;32.70;42.90
5192;DHT22;2615;44.524;11.284;2022-09-02T11:09:32;33.00;42.40
5192;DHT22;2615;44.524;11.284;2022-09-02T11:12:06;33.20;41.80
5192;DHT22;2615;44.524;11.284;2022-09-02T11:14:42;33.50;41.50
5192;DHT22;2615;44.524;11.284;2022-09-02T11:17:18;33.70;41.00
5192;DHT22;2615;44.524;11.284;2022-09-02T11:22:26;34.20;39.80
5192;DHT22;2615;44.524;11.284;2022-09-02T11:24:59;34.10;39.80
5192;DHT22;2615;44.524;11.284;2022-09-02T11:27:33;34.10;39.70
5192;DHT22;2615;44.524;11.284;2022-09-02T11:30:12;34.20;39.60
5192;DHT22;2615;44.524;11.284;2022-09-02T11:32:43;34.40;39.00
5192;DHT22;2615;44.524;11.284;2022-09-02T11:35:17;34.50;38.50
5192;DHT22;2615;44.524;11.284;2022-09-02T11:37:52;34.50;38.20
5192;DHT22;2615;44.524;11.284;2022-09-02T11:40:25;34.60;37.80
5192;DHT22;2615;44.524;11.284;2022-09-02T11:43:20;34.80;37.60
5192;DHT22;2615;44.524;11.284;2022-09-02T11:46:17;35.00;36.80
5192;DHT22;2615;44.524;11.284;2022-09-02T11:49:28;35.20;36.80
5192;DHT22;2615;44.524;11.284;2022-09-02T11:52:27;35.30;36.50
5192;DHT22;2615;44.524;11.284;2022-09-02T11:55:07;35.50;36.30
5192;DHT22;2615;44.524;11.284;2022-09-02T11:57:37;35.80;36.20
5192;DHT22;2615;44.524;11.284;2022-09-02T12:06:05;36.60;34.50
5192;DHT22;2615;44.524;11.284;2022-09-02T12:09:03;36.70;34.30
5192;DHT22;2615;44.524;11.284;2022-09-02T12:11:48;36.80;33.70
5192;DHT22;2615;44.524;11.284;2022-09-02T12:17:44;36.80;33.00
5192;DHT22;2615;44.524;11.284;2022-09-02T12:21:07;36.90;33.20
5192;DHT22;2615;44.524;11.284;2022-09-02T12:24:19;36.80;33.20
5192;DHT22;2615;44.524;11.284;2022-09-02T12:27:10;36.70;33.20
5192;DHT22;2615;44.524;11.284;2022-09-02T12:29:45;36.80;32.80
5192;DHT22;2615;44.524;11.284;2022-09-02T12:35:31;36.70;32.90
5192;DHT22;2615;44.524;11.284;2022-09-02T12:38:25;36.30;33.50
5192;DHT22;2615;44.524;11.284;2022-09-02T12:41:18;35.80;33.30
5192;DHT22;2615;44.524;11.284;2022-09-02T12:44:01;35.20;33.60
5192;DHT22;2615;44.524;11.284;2022-09-02T12:49:36;34.00;34.60
5192;DHT22;2615;44.524;11.284;2022-09-02T12:52:07;33.50;35.10
5192;DHT22;2615;44.524;11.284;2022-09-02T12:54:42;33.00;35.60
5192;DHT22;2615;44.524;11.284;2022-09-02T12:57:14;32.70;36.00
5192;DHT22;2615;44.524;11.284;2022-09-02T12:59:45;32.40;36.40
5192;DHT22;2615;44.524;11.284;2022-09-02T13:02:35;32.00;36.60
5192;DHT22;2615;44.524;11.284;2022-09-02T13:05:23;31.70;36.90
5192;DHT22;2615;44.524;11.284;2022-09-02T13:11:31;31.10;37.50
5192;DHT22;2615;44.524;11.284;2022-09-02T13:14:28;30.90;37.60
5192;DHT22;2615;44.524;11.284;2022-09-02T13:17:26;30.70;37.90
5192;DHT22;2615;44.524;11.284;2022-09-02T13:20:31;30.50;38.30
5192;DHT22;2615;44.524;11.284;2022-09-02T13:23:45;30.30;38.60
5192;DHT22;2615;44.524;11.284;2022-09-02T13:26:52;30.10;38.80
5192;DHT22;2615;44.524;11.284;2022-09-02T13:32:39;29.70;39.20
5192;DHT22;2615;44.524;11.284;2022-09-02T13:35:15;29.60;39.50
5192;DHT22;2615;44.524;11.284;2022-09-02T13:37:53;29.60;39.70
5192;DHT22;2615;44.524;11.284;2022-09-02T13:40:27;29.40;39.70
5192;DHT22;2615;44.524;11.284;2022-09-02T13:42:57;29.40;39.80
5192;DHT22;2615;44.524;11.284;2022-09-02T13:45:28;29.30;39.90
5192;DHT22;2615;44.524;11.284;2022-09-02T13:48:00;29.30;40.10
5192;DHT22;2615;44.524;11.284;2022-09-02T13:50:31;29.20;40.20
5192;DHT22;2615;44.524;11.284;2022-09-02T13:53:01;29.10;40.20
5192;DHT22;2615;44.524;11.284;2022-09-02T13:55:52;29.10;40.30
5192;DHT22;2615;44.524;11.284;2022-09-02T13:58:30;29.00;41.00
5192;DHT22;2615;44.524;11.284;2022-09-02T14:01:21;29.00;40.40
5192;DHT22;2615;44.524;11.284;2022-09-02T14:03:53;28.90;40.50
5192;DHT22;2615;44.524;11.284;2022-09-02T14:06:25;28.90;40.60
5192;DHT22;2615;44.524;11.284;2022-09-02T14:08:56;28.80;40.70
5192;DHT22;2615;44.524;11.284;2022-09-02T14:11:27;28.70;40.70
5192;DHT22;2615;44.524;11.284;2022-09-02T14:13:56;28.60;40.70
5192;DHT22;2615;44.524;11.284;2022-09-02T14:16:30;28.60;40.80
5192;DHT22;2615;44.524;11.284;2022-09-02T14:19:09;28.60;40.90
5192;DHT22;2615;44.524;11.284;2022-09-02T14:21:44;28.60;41.00
5192;DHT22;2615;44.524;11.284;2022-09-02T14:24:15;28.60;41.20
5192;DHT22;2615;44.524;11.284;2022-09-02T14:26:45;28.50;41.20
5192;DHT22;2615;44.524;11.284;2022-09-02T14:29:15;28.50;41.30
5192;DHT22;2615;44.524;11.284;2022-09-02T14:31:45;28.40;41.30
5192;DHT22;2615;44.524;11.284;2022-09-02T14:34:36;28.40;41.30
5192;DHT22;2615;44.524;11.284;2022-09-02T14:37:20;28.40;42.00
5192;DHT22;2615;44.524;11.284;2022-09-02T14:40:06;28.40;41.30
5192;DHT22;2615;44.524;11.284;2022-09-02T14:42:45;28.40;41.30
5192;DHT22;2615;44.524;11.284;2022-09-02T14:45:24;28.40;41.40
5192;DHT22;2615;44.524;11.284;2022-09-02T14:47:54;28.40;41.60
5192;DHT22;2615;44.524;11.284;2022-09-02T14:50:26;28.40;41.70
5192;DHT22;2615;44.524;11.284;2022-09-02T14:53:00;28.30;41.80
5192;DHT22;2615;44.524;11.284;2022-09-02T14:55:46;28.30;41.90
5192;DHT22;2615;44.524;11.284;2022-09-02T14:58:16;28.30;42.10
5192;DHT22;2615;44.524;11.284;2022-09-02T15:00:45;28.20;42.10
5192;DHT22;2615;44.524;11.284;2022-09-02T15:03:14;28.20;42.10
5192;DHT22;2615;44.524;11.284;2022-09-02T15:05:45;28.20;42.20
5192;DHT22;2615;44.524;11.284;2022-09-02T15:08:13;28.20;42.20
5192;DHT22;2615;44.524;11.284;2022-09-02T15:10:42;28.20;42.10
5192;DHT22;2615;44.524;11.284;2022-09-02T15:13:12;28.20;42.10
5192;DHT22;2615;44.524;11.284;2022-09-02T15:15:41;28.10;42.20
5192;DHT22;2615;44.524;11.284;2022-09-02T15:18:11;28.20;42.40
5192;DHT22;2615;44.524;11.284;2022-09-02T15:20:40;28.10;42.40
5192;DHT22;2615;44.524;11.284;2022-09-02T15:23:09;28.10;42.40
5192;DHT22;2615;44.524;11.284;2022-09-02T15:25:37;28.10;42.50
5192;DHT22;2615;44.524;11.284;2022-09-02T15:28:05;28.10;42.50
5192;DHT22;2615;44.524;11.284;2022-09-02T15:30:34;28.00;42.50
5192;DHT22;2615;44.524;11.284;2022-09-02T15:33:03;27.90;42.50
5192;DHT22;2615;44.524;11.284;2022-09-02T15:35:32;27.90;42.50
5192;DHT22;2615;44.524;11.284;2022-09-02T15:38:00;27.90;42.50
5192;DHT22;2615;44.524;11.284;2022-09-02T15:40:31;27.90;42.60
5192;DHT22;2615;44.524;11.284;2022-09-02T15:43:00;27.90;42.60
5192;DHT22;2615;44.524;11.284;2022-09-02T15:45:28;27.90;42.50
5192;DHT22;2615;44.524;11.284;2022-09-02T15:47:57;27.80;42.50
5192;DHT22;2615;44.524;11.284;2022-09-02T15:50:25;27.80;42.70
5192;DHT22;2615;44.524;11.284;2022-09-02T15:53:00;27.70;42.70
5192;DHT22;2615;44.524;11.284;2022-09-02T15:55:32;27.70;42.80
5192;DHT22;2615;44.524;11.284;2022-09-02T15:58:00;27.70;43.00
5192;DHT22;2615;44.524;11.284;2022-09-02T16:00:29;27.60;42.90
5192;DHT22;2615;44.524;11.284;2022-09-02T16:03:00;27.70;43.10
5192;DHT22;2615;44.524;11.284;2022-09-02T16:05:28;27.70;43.10
5192;DHT22;2615;44.524;11.284;2022-09-02T16:07:58;27.70;43.10
5192;DHT22;2615;44.524;11.284;2022-09-02T16:10:27;27.70;43.20
5192;DHT22;2615;44.524;11.284;2022-09-02T16:12:57;27.60;43.30
5192;DHT22;2615;44.524;11.284;2022-09-02T16:15:26;27.60;43.50
5192;DHT22;2615;44.524;11.284;2022-09-02T16:17:55;27.60;43.80
5192;DHT22;2615;44.524;11.284;2022-09-02T16:20:23;27.60;44.00
5192;DHT22;2615;44.524;11.284;2022-09-02T16:22:51;27.60;44.20
5192;DHT22;2615;44.524;11.284;2022-09-02T16:25:20;27.50;44.40
5192;DHT22;2615;44.524;11.284;2022-09-02T16:27:48;27.50;44.60
5192;DHT22;2615;44.524;11.284;2022-09-02T16:30:22;27.50;44.70
5192;DHT22;2615;44.524;11.284;2022-09-02T16:32:52;27.50;45.00
5192;DHT22;2615;44.524;11.284;2022-09-02T16:35:20;27.50;45.20
5192;DHT22;2615;44.524;11.284;2022-09-02T16:37:48;27.50;45.50
5192;DHT22;2615;44.524;11.284;2022-09-02T16:40:16;27.40;45.50
5192;DHT22;2615;44.524;11.284;2022-09-02T16:42:47;27.40;45.40
5192;DHT22;2615;44.524;11.284;2022-09-02T16:45:16;27.40;45.30
5192;DHT22;2615;44.524;11.284;2022-09-02T16:47:46;27.40;45.60
5192;DHT22;2615;44.524;11.284;2022-09-02T16:50:14;27.40;45.70
5192;DHT22;2615;44.524;11.284;2022-09-02T16:52:43;27.30;45.90